Time;durP1;ratioP1;P1;durP2;ratioP2;P2;SDS_P1;SDS_P2;PMS_P1;PMS_P2;Temp;Humidity;BMP_temperature;BMP_pressure;BME280_temperature;BME280_humidity;BME280_pressure;Samples;Min_cycle;Max_cycle;Signal;HPM_P1;HPM_P2
2021/09/02 00:00:46;;;;;;;15.02;8.05;;;;;;;;;;5068529;28;20511;-85
2021/09/02 00:03:12;;;;;;;13.73;7.47;;;;;;;;;;5068704;28;20045;-86
2021/09/02 00:05:38;;;;;;;12.55;7.22;;;;;;;;;;5067008;28;20046;-85
2021/09/02 00:08:05;;;;;;;12.40;7.03;;;;;;;;;;5068430;28;20041;-85
2021/09/02 00:10:31;;;;;;;11.13;6.90;;;;;;;;;;5067860;28;20040;-85
2021/09/02 00:12:57;;;;;;;13.20;7.22;;;;;;;;;;5069543;28;20037;-85
2021/09/02 00:15:23;;;;;;;11.07;6.57;;;;;;;;;;5068060;28;20047;-88
2021/09/02 00:17:50;;;;;;;13.80;7.57;;;;;;;;;;5052214;28;20098;-86
2021/09/02 00:20:16;;;;;;;12.85;7.55;;;;;;;;;;5052144;28;20048;-85
2021/09/02 00:22:42;;;;;;;15.93;7.97;;;;;;;;;;5067676;28;20044;-85
2021/09/02 00:25:09;;;;;;;14.80;7.68;;;;;;;;;;5067404;28;20051;-85
2021/09/02 00:27:35;;;;;;;16.73;8.27;;;;;;;;;;5066580;28;20419;-87
2021/09/02 00:30:01;;;;;;;11.68;6.70;;;;;;;;;;5052345;28;20174;-85
2021/09/02 00:32:27;;;;;;;14.45;7.70;;;;;;;;;;5066672;28;20361;-86
2021/09/02 00:34:53;;;;;;;15.00;7.50;;;;;;;;;;5051382;28;20049;-85
2021/09/02 00:37:19;;;;;;;18.30;7.18;;;;;;;;;;5067957;28;20075;-85
2021/09/02 00:39:45;;;;;;;15.60;7.75;;;;;;;;;;5067803;28;20054;-85
2021/09/02 00:42:11;;;;;;;15.32;7.82;;;;;;;;;;5067333;28;20043;-85
2021/09/02 00:44:41;;;;;;;13.75;7.05;;;;;;;;;;5068210;28;20044;-85
2021/09/02 00:47:12;;;;;;;11.63;6.57;;;;;;;;;;5067119;28;20045;-86
2021/09/02 00:49:39;;;;;;;12.52;7.05;;;;;;;;;;5067033;28;20127;-85
2021/09/02 00:52:08;;;;;;;14.13;7.30;;;;;;;;;;5108944;28;20051;-86
2021/09/02 00:54:35;;;;;;;18.02;8.38;;;;;;;;;;5090043;28;20044;-85
2021/09/02 00:57:01;;;;;;;15.35;8.32;;;;;;;;;;5109164;28;20125;-85
2021/09/02 00:59:28;;;;;;;13.70;7.65;;;;;;;;;;5108163;28;20048;-86
2021/09/02 01:01:54;;;;;;;14.60;7.32;;;;;;;;;;5074600;28;20482;-86
2021/09/02 01:04:22;;;;;;;14.70;7.97;;;;;;;;;;5090477;28;20096;-86
2021/09/02 01:06:48;;;;;;;16.85;8.25;;;;;;;;;;5089560;28;20039;-85
2021/09/02 01:09:14;;;;;;;14.80;7.97;;;;;;;;;;5090196;28;20135;-86
2021/09/02 01:11:40;;;;;;;17.90;8.52;;;;;;;;;;5089576;28;20044;-86
2021/09/02 01:14:07;;;;;;;16.23;8.20;;;;;;;;;;5073178;28;20047;-87
2021/09/02 01:16:33;;;;;;;14.13;8.65;;;;;;;;;;5107744;28;20058;-85
2021/09/02 01:18:59;;;;;;;18.58;9.50;;;;;;;;;;5090251;28;20615;-87
2021/09/02 01:21:25;;;;;;;17.33;9.20;;;;;;;;;;5090401;28;20685;-88
2021/09/02 01:23:51;;;;;;;17.80;8.68;;;;;;;;;;5090373;28;20036;-85
2021/09/02 01:26:24;;;;;;;13.68;8.52;;;;;;;;;;5108364;28;20097;-86
2021/09/02 01:28:50;;;;;;;15.10;8.82;;;;;;;;;;5090501;28;20036;-86
2021/09/02 01:31:20;;;;;;;16.13;7.80;;;;;;;;;;5090262;28;20062;-85
2021/09/02 01:33:49;;;;;;;14.48;8.68;;;;;;;;;;5106817;28;20054;-86
2021/09/02 01:36:16;;;;;;;18.02;8.82;;;;;;;;;;5090602;28;20308;-86
2021/09/02 01:38:42;;;;;;;17.42;10.00;;;;;;;;;;5089452;28;20415;-86
2021/09/02 01:41:09;;;;;;;19.42;9.43;;;;;;;;;;5108691;28;20043;-85
2021/09/02 01:43:35;;;;;;;18.42;10.18;;;;;;;;;;5089632;28;20118;-85
2021/09/02 01:46:01;;;;;;;16.63;8.82;;;;;;;;;;5108573;28;20506;-86
2021/09/02 01:48:31;;;;;;;16.95;8.73;;;;;;;;;;5108656;28;20054;-86
2021/09/02 01:50:57;;;;;;;21.10;10.45;;;;;;;;;;5106413;28;20048;-85
2021/09/02 01:53:24;;;;;;;16.48;9.18;;;;;;;;;;5072832;28;20043;-88
2021/09/02 01:55:50;;;;;;;15.07;8.32;;;;;;;;;;5073455;28;20042;-85
2021/09/02 01:58:16;;;;;;;15.60;8.07;;;;;;;;;;5108038;28;20044;-86
2021/09/02 02:00:42;;;;;;;18.23;9.00;;;;;;;;;;5073349;28;20075;-86
2021/09/02 02:03:08;;;;;;;15.57;8.63;;;;;;;;;;5107828;28;20044;-86
2021/09/02 02:05:34;;;;;;;16.10;8.52;;;;;;;;;;5088659;28;20036;-85
2021/09/02 02:08:01;;;;;;;19.27;9.23;;;;;;;;;;5107881;28;20119;-86
2021/09/02 02:10:28;;;;;;;15.27;8.02;;;;;;;;;;5089451;28;20497;-88
2021/09/02 02:12:55;;;;;;;19.50;9.32;;;;;;;;;;5107800;28;20058;-85
2021/09/02 02:15:22;;;;;;;18.88;9.27;;;;;;;;;;5089455;28;20503;-85
2021/09/02 02:17:48;;;;;;;16.70;9.80;;;;;;;;;;5088689;28;20117;-85
2021/09/02 02:20:14;;;;;;;20.42;9.35;;;;;;;;;;5071598;28;20083;-85
2021/09/02 02:22:41;;;;;;;16.98;9.02;;;;;;;;;;5088052;28;20042;-86
2021/09/02 02:25:08;;;;;;;20.00;9.65;;;;;;;;;;5088798;28;20051;-85
2021/09/02 02:27:34;;;;;;;18.17;9.00;;;;;;;;;;5088157;28;20047;-85
2021/09/02 02:30:01;;;;;;;18.08;9.82;;;;;;;;;;5107130;28;20056;-87
2021/09/02 02:32:27;;;;;;;20.27;10.48;;;;;;;;;;5105457;28;20511;-89
2021/09/02 02:34:53;;;;;;;20.73;9.82;;;;;;;;;;5089033;28;20173;-86
2021/09/02 02:37:19;;;;;;;20.70;10.50;;;;;;;;;;5072361;28;20410;-86
2021/09/02 02:39:45;;;;;;;18.48;9.70;;;;;;;;;;5070805;28;20048;-85
2021/09/02 02:42:12;;;;;;;17.45;9.93;;;;;;;;;;5107431;28;20074;-86
2021/09/02 02:44:38;;;;;;;23.20;10.63;;;;;;;;;;5072105;28;20032;-86
2021/09/02 02:47:05;;;;;;;25.38;10.23;;;;;;;;;;5088016;28;20054;-87
2021/09/02 02:49:31;;;;;;;19.40;9.48;;;;;;;;;;5072868;28;20039;-86
2021/09/02 02:51:57;;;;;;;18.65;10.40;;;;;;;;;;5110495;28;20052;-87
2021/09/02 02:54:24;;;;;;;22.38;11.35;;;;;;;;;;5093698;28;20073;-89
2021/09/02 02:56:50;;;;;;;19.95;11.10;;;;;;;;;;5092154;28;20039;-85
2021/09/02 02:59:16;;;;;;;19.90;11.43;;;;;;;;;;5092998;28;20071;-85
2021/09/02 03:01:42;;;;;;;21.40;11.93;;;;;;;;;;5092317;28;20050;-86
2021/09/02 03:04:08;;;;;;;23.52;11.57;;;;;;;;;;5110070;28;20043;-86
2021/09/02 03:06:35;;;;;;;23.27;12.35;;;;;;;;;;5108974;27;20037;-85
2021/09/02 03:09:02;;;;;;;25.52;13.13;;;;;;;;;;5075856;28;20141;-86
2021/09/02 03:11:29;;;;;;;24.85;12.60;;;;;;;;;;5091683;28;20043;-89
2021/09/02 03:13:55;;;;;;;25.58;13.15;;;;;;;;;;5110713;28;20058;-86
2021/09/02 03:16:21;;;;;;;26.38;13.82;;;;;;;;;;5093143;28;20134;-85
2021/09/02 03:18:47;;;;;;;24.25;13.60;;;;;;;;;;5091872;28;20051;-86
2021/09/02 03:21:13;;;;;;;26.25;13.65;;;;;;;;;;5092486;28;20482;-86
2021/09/02 03:23:39;;;;;;;28.95;14.23;;;;;;;;;;5092274;28;20056;-86
2021/09/02 03:26:05;;;;;;;25.95;14.00;;;;;;;;;;5092501;28;20051;-88
2021/09/02 03:28:32;;;;;;;23.10;13.70;;;;;;;;;;5109734;28;20040;-86
2021/09/02 03:30:58;;;;;;;26.02;13.57;;;;;;;;;;5092781;28;20046;-86
2021/09/02 03:33:24;;;;;;;22.83;14.48;;;;;;;;;;5110276;28;20834;-87
2021/09/02 03:35:50;;;;;;;23.60;13.88;;;;;;;;;;5092162;28;20059;-85
2021/09/02 03:38:16;;;;;;;27.65;14.80;;;;;;;;;;5092423;28;20073;-85
2021/09/02 03:40:42;;;;;;;26.02;14.50;;;;;;;;;;5091945;28;20036;-86
2021/09/02 03:43:08;;;;;;;25.52;14.18;;;;;;;;;;5091952;28;20105;-86
2021/09/02 03:45:34;;;;;;;23.05;14.43;;;;;;;;;;5091328;28;20035;-86
2021/09/02 03:48:01;;;;;;;23.35;14.88;;;;;;;;;;5075606;28;20442;-85
2021/09/02 03:50:27;;;;;;;23.25;14.20;;;;;;;;;;5091415;28;20126;-89
2021/09/02 03:52:53;;;;;;;21.75;15.02;;;;;;;;;;5109698;28;20043;-85
2021/09/02 03:55:20;;;;;;;26.90;14.98;;;;;;;;;;5075549;28;20039;-86
2021/09/02 03:57:46;;;;;;;23.30;14.63;;;;;;;;;;5091640;28;20507;-86
2021/09/02 04:00:13;;;;;;;26.35;15.15;;;;;;;;;;5109426;28;20043;-85
2021/09/02 04:02:39;;;;;;;28.27;16.00;;;;;;;;;;5090435;28;20044;-86
2021/09/02 04:05:06;;;;;;;26.15;15.90;;;;;;;;;;5090668;28;20544;-85
2021/09/02 04:07:32;;;;;;;24.63;15.10;;;;;;;;;;5074990;28;20067;-86
2021/09/02 04:09:58;;;;;;;21.95;15.07;;;;;;;;;;5093926;28;20042;-85
2021/09/02 04:12:24;;;;;;;24.08;14.95;;;;;;;;;;5093944;28;20126;-86
2021/09/02 04:14:51;;;;;;;22.77;14.85;;;;;;;;;;5076899;28;20063;-86
2021/09/02 04:17:17;;;;;;;26.67;14.93;;;;;;;;;;5077336;28;20048;-86
2021/09/02 04:19:43;;;;;;;26.55;15.15;;;;;;;;;;5092815;28;20445;-87
2021/09/02 04:22:09;;;;;;;23.83;15.02;;;;;;;;;;5094137;28;20067;-85
2021/09/02 04:24:35;;;;;;;23.55;13.93;;;;;;;;;;5093498;28;20123;-85
2021/09/02 04:27:01;;;;;;;23.05;14.25;;;;;;;;;;5111476;28;20075;-86
2021/09/02 04:29:27;;;;;;;22.15;13.82;;;;;;;;;;5093465;28;20476;-88
2021/09/02 04:31:53;;;;;;;17.77;12.38;;;;;;;;;;5074523;28;20080;-86
2021/09/02 04:34:19;;;;;;;22.10;12.48;;;;;;;;;;5093667;28;20079;-85
2021/09/02 04:36:45;;;;;;;20.23;12.52;;;;;;;;;;5111184;28;20064;-86
2021/09/02 04:39:11;;;;;;;18.13;11.95;;;;;;;;;;5093401;28;20036;-86
2021/09/02 04:41:37;;;;;;;19.30;11.73;;;;;;;;;;5093163;28;20058;-86
2021/09/02 04:44:03;;;;;;;20.40;12.27;;;;;;;;;;5094640;28;20040;-85
2021/09/02 04:46:30;;;;;;;21.75;12.60;;;;;;;;;;5093647;28;20039;-90
2021/09/02 04:48:56;;;;;;;25.30;12.98;;;;;;;;;;5077158;28;20131;-85
2021/09/02 04:51:22;;;;;;;20.23;11.38;;;;;;;;;;5092783;28;20472;-87
2021/09/02 04:53:48;;;;;;;21.00;12.20;;;;;;;;;;5092473;28;20082;-86
2021/09/02 04:56:14;;;;;;;20.38;11.98;;;;;;;;;;5093798;28;20381;-85
2021/09/02 04:58:40;;;;;;;20.25;12.27;;;;;;;;;;5092833;28;20036;-88
2021/09/02 05:01:06;;;;;;;17.75;11.13;;;;;;;;;;5077070;28;20039;-86
2021/09/02 05:03:33;;;;;;;22.17;11.57;;;;;;;;;;5075565;28;20050;-89
2021/09/02 05:05:59;;;;;;;17.60;10.23;;;;;;;;;;5073042;28;20135;-85
2021/09/02 05:08:25;;;;;;;17.60;9.73;;;;;;;;;;5108285;28;20123;-85
2021/09/02 05:10:51;;;;;;;16.17;9.98;;;;;;;;;;5106930;28;20077;-86
2021/09/02 05:13:17;;;;;;;16.95;9.63;;;;;;;;;;5073334;28;20040;-86
2021/09/02 05:15:44;;;;;;;19.35;9.48;;;;;;;;;;5072235;28;20039;-89
2021/09/02 05:18:10;;;;;;;21.15;8.05;;;;;;;;;;5076894;28;20494;-86
2021/09/02 05:20:36;;;;;;;12.27;7.60;;;;;;;;;;5091831;28;20048;-87
2021/09/02 05:23:02;;;;;;;13.85;7.53;;;;;;;;;;5075887;28;20126;-87
2021/09/02 05:25:31;;;;;;;13.63;7.40;;;;;;;;;;5090380;28;20054;-88
2021/09/02 05:27:57;;;;;;;11.05;6.95;;;;;;;;;;5075744;27;20099;-87
2021/09/02 05:30:23;;;;;;;12.48;7.20;;;;;;;;;;5102680;28;20074;-86
2021/09/02 05:32:49;;;;;;;12.07;6.90;;;;;;;;;;5112048;27;20554;-86
2021/09/02 05:35:16;;;;;;;14.20;7.00;;;;;;;;;;5112846;27;20047;-89
2021/09/02 05:37:42;;;;;;;12.13;6.88;;;;;;;;;;5095454;28;20091;-86
2021/09/02 05:40:09;;;;;;;14.75;7.88;;;;;;;;;;5093179;28;20048;-85
2021/09/02 05:42:35;;;;;;;14.00;7.38;;;;;;;;;;5090104;28;20059;-88
2021/09/02 05:45:01;;;;;;;19.25;7.40;;;;;;;;;;5091699;28;20499;-87
2021/09/02 05:47:27;;;;;;;13.65;7.80;;;;;;;;;;5092520;28;20055;-86
2021/09/02 05:49:53;;;;;;;22.88;9.35;;;;;;;;;;5091490;28;20067;-86
2021/09/02 05:52:19;;;;;;;16.67;10.05;;;;;;;;;;5091972;28;20081;-87
2021/09/02 05:54:48;;;;;;;20.33;9.60;;;;;;;;;;5074978;28;20062;-90
2021/09/02 05:57:14;;;;;;;20.10;9.65;;;;;;;;;;5091652;28;20080;-86
2021/09/02 05:59:40;;;;;;;18.13;9.68;;;;;;;;;;5109705;28;20054;-88
2021/09/02 06:02:06;;;;;;;16.80;9.75;;;;;;;;;;5092247;28;20425;-86
2021/09/02 06:04:32;;;;;;;18.52;10.40;;;;;;;;;;5092119;28;20047;-88
2021/09/02 06:06:58;;;;;;;21.35;10.60;;;;;;;;;;5091253;28;20035;-87
2021/09/02 06:09:25;;;;;;;20.52;9.88;;;;;;;;;;5091927;28;20052;-87
2021/09/02 06:11:51;;;;;;;17.27;9.43;;;;;;;;;;5091234;28;20520;-86
2021/09/02 06:14:17;;;;;;;17.85;9.68;;;;;;;;;;5067014;28;20039;-86
2021/09/02 06:16:43;;;;;;;21.90;9.88;;;;;;;;;;5103770;28;20130;-86
2021/09/02 06:19:09;;;;;;;18.52;9.43;;;;;;;;;;5113032;28;20051;-85
2021/09/02 06:21:35;;;;;;;14.95;8.77;;;;;;;;;;5111537;28;20394;-87
2021/09/02 06:24:01;;;;;;;22.45;10.15;;;;;;;;;;5102490;28;20047;-86
2021/09/02 06:26:27;;;;;;;18.83;10.00;;;;;;;;;;5076030;28;20040;-86
2021/09/02 06:28:53;;;;;;;19.85;10.57;;;;;;;;;;5075353;28;20453;-86
2021/09/02 06:31:19;;;;;;;19.65;9.93;;;;;;;;;;5075933;28;20047;-86
2021/09/02 06:33:45;;;;;;;14.85;8.63;;;;;;;;;;5093158;28;20100;-85
2021/09/02 06:36:11;;;;;;;15.73;8.85;;;;;;;;;;5095340;28;20399;-86
2021/09/02 06:38:37;;;;;;;16.15;8.57;;;;;;;;;;5094880;28;20047;-86
2021/09/02 06:41:04;;;;;;;13.27;8.13;;;;;;;;;;5095586;28;20510;-85
2021/09/02 06:43:30;;;;;;;13.18;7.75;;;;;;;;;;5088886;28;20069;-85
2021/09/02 06:45:56;;;;;;;13.50;8.32;;;;;;;;;;5065606;28;20060;-85
2021/09/02 06:48:22;;;;;;;14.35;8.15;;;;;;;;;;5092246;28;20087;-85
2021/09/02 06:50:48;;;;;;;15.80;7.50;;;;;;;;;;5083225;28;20056;-85
2021/09/02 06:53:14;;;;;;;12.48;8.00;;;;;;;;;;5091771;28;20410;-86
2021/09/02 06:55:40;;;;;;;16.02;8.25;;;;;;;;;;5091474;28;20055;-84
2021/09/02 06:58:06;;;;;;;14.35;7.60;;;;;;;;;;5074883;28;20048;-84
2021/09/02 07:00:32;;;;;;;15.10;8.10;;;;;;;;;;5092794;28;20147;-87
2021/09/02 07:02:58;;;;;;;15.43;8.10;;;;;;;;;;5089957;28;20123;-85
2021/09/02 07:05:24;;;;;;;19.33;8.40;;;;;;;;;;5061071;28;20051;-84
2021/09/02 07:07:52;;;;;;;13.90;7.93;;;;;;;;;;5090956;28;20105;-85
2021/09/02 07:10:18;;;;;;;17.02;8.50;;;;;;;;;;5074410;28;20059;-84
2021/09/02 07:12:44;;;;;;;15.75;8.15;;;;;;;;;;5073996;28;20080;-85
2021/09/02 07:15:10;;;;;;;13.20;8.13;;;;;;;;;;5092050;28;20600;-85
2021/09/02 07:17:36;;;;;;;19.25;8.43;;;;;;;;;;5074566;28;20495;-88
2021/09/02 07:20:03;;;;;;;15.32;8.38;;;;;;;;;;5088339;28;20157;-84
2021/09/02 07:22:32;;;;;;;15.45;7.90;;;;;;;;;;5091963;28;20058;-85
2021/09/02 07:24:58;;;;;;;14.68;7.65;;;;;;;;;;5092089;28;20089;-85
2021/09/02 07:27:24;;;;;;;13.48;6.95;;;;;;;;;;5092546;28;20082;-86
2021/09/02 07:29:50;;;;;;;13.15;6.63;;;;;;;;;;5092912;28;20043;-85
2021/09/02 07:32:16;;;;;;;13.15;6.47;;;;;;;;;;5091884;28;20040;-85
2021/09/02 07:34:43;;;;;;;13.13;7.05;;;;;;;;;;5092480;28;20048;-85
2021/09/02 07:37:10;;;;;;;11.63;7.30;;;;;;;;;;5088300;28;20449;-85
2021/09/02 07:39:37;;;;;;;19.95;7.45;;;;;;;;;;5067498;28;20130;-87
2021/09/02 07:42:04;;;;;;;12.77;6.93;;;;;;;;;;5074914;28;20047;-85
2021/09/02 07:44:30;;;;;;;12.90;6.90;;;;;;;;;;5092826;28;20131;-84
2021/09/02 07:46:56;;;;;;;13.90;7.03;;;;;;;;;;5090998;28;20518;-85
2021/09/02 07:49:22;;;;;;;14.65;7.03;;;;;;;;;;5091444;28;20156;-85
2021/09/02 07:51:48;;;;;;;15.50;7.88;;;;;;;;;;5090068;28;20740;-85
2021/09/02 07:54:14;;;;;;;12.98;7.72;;;;;;;;;;5066017;28;20048;-85
2021/09/02 07:56:40;;;;;;;12.57;7.70;;;;;;;;;;5033922;28;20106;-86
2021/09/02 07:59:06;;;;;;;15.10;8.02;;;;;;;;;;5050997;28;20052;-86
2021/09/02 08:01:32;;;;;;;12.95;7.53;;;;;;;;;;5054139;28;20546;-85
2021/09/02 08:03:58;;;;;;;13.93;7.93;;;;;;;;;;5053708;28;20055;-85
2021/09/02 08:06:24;;;;;;;14.05;7.85;;;;;;;;;;5071698;28;20083;-86
2021/09/02 08:08:51;;;;;;;12.88;6.82;;;;;;;;;;5070028;28;20381;-86
2021/09/02 08:11:17;;;;;;;13.15;7.07;;;;;;;;;;5072454;28;20472;-85
2021/09/02 08:13:43;;;;;;;11.95;7.40;;;;;;;;;;5053133;28;20053;-85
2021/09/02 08:16:09;;;;;;;14.48;7.03;;;;;;;;;;5066625;28;20489;-84
2021/09/02 08:18:35;;;;;;;13.88;6.85;;;;;;;;;;5050472;28;20060;-88
2021/09/02 08:21:01;;;;;;;13.48;7.43;;;;;;;;;;5051244;28;20474;-85
2021/09/02 08:23:27;;;;;;;15.10;7.07;;;;;;;;;;5051563;28;20049;-86
2021/09/02 08:25:53;;;;;;;14.88;6.82;;;;;;;;;;5050084;28;20094;-85
2021/09/02 08:28:19;;;;;;;11.35;6.85;;;;;;;;;;5054918;28;20041;-84
2021/09/02 08:30:45;;;;;;;11.48;6.20;;;;;;;;;;5070814;28;20390;-85
2021/09/02 08:33:11;;;;;;;13.95;7.07;;;;;;;;;;5070139;28;20051;-85
2021/09/02 08:35:38;;;;;;;13.48;6.85;;;;;;;;;;5069922;28;20045;-89
2021/09/02 08:38:05;;;;;;;12.77;6.95;;;;;;;;;;5069432;28;20052;-84
2021/09/02 08:40:33;;;;;;;13.60;6.65;;;;;;;;;;5071160;28;20045;-85
2021/09/02 08:42:59;;;;;;;11.13;6.65;;;;;;;;;;5069481;28;20086;-84
2021/09/02 08:45:26;;;;;;;15.32;7.07;;;;;;;;;;5064788;28;20048;-85
2021/09/02 08:47:53;;;;;;;16.25;7.07;;;;;;;;;;5049594;28;20048;-84
2021/09/02 08:50:24;;;;;;;11.93;6.63;;;;;;;;;;5061206;28;20044;-84
2021/09/02 08:52:51;;;;;;;13.45;6.82;;;;;;;;;;5090538;28;20051;-85
2021/09/02 08:55:17;;;;;;;14.38;7.07;;;;;;;;;;5074579;28;20044;-85
2021/09/02 08:57:47;;;;;;;16.45;7.03;;;;;;;;;;5073348;28;20043;-85
2021/09/02 09:00:13;;;;;;;12.35;6.80;;;;;;;;;;5092356;28;20083;-86
2021/09/02 09:02:45;;;;;;;15.38;8.32;;;;;;;;;;5091315;28;20044;-87
2021/09/02 09:05:13;;;;;;;12.13;7.22;;;;;;;;;;5074475;28;20468;-85
2021/09/02 09:07:41;;;;;;;15.32;7.00;;;;;;;;;;5110092;28;20101;-88
2021/09/02 09:10:11;;;;;;;12.43;7.15;;;;;;;;;;5092515;28;20067;-84
2021/09/02 09:12:41;;;;;;;14.52;7.35;;;;;;;;;;5084868;28;20047;-87
2021/09/02 09:15:08;;;;;;;12.32;6.95;;;;;;;;;;5090676;28;20135;-87
2021/09/02 09:17:34;;;;;;;15.05;6.70;;;;;;;;;;5072665;28;20036;-85
2021/09/02 09:20:01;;;;;;;13.80;6.80;;;;;;;;;;5083887;28;20040;-84
2021/09/02 09:22:29;;;;;;;13.50;7.05;;;;;;;;;;5110088;28;20491;-85
2021/09/02 09:24:56;;;;;;;14.40;7.03;;;;;;;;;;5092128;28;20076;-87
2021/09/02 09:27:25;;;;;;;12.40;6.78;;;;;;;;;;5111196;28;20044;-87
2021/09/02 09:30:11;;;;;;;10.90;6.60;;;;;;;;;;5092466;28;20043;-85
2021/09/02 09:32:45;;;;;;;13.90;6.88;;;;;;;;;;5093307;28;20474;-89
2021/09/02 09:35:14;;;;;;;13.25;7.10;;;;;;;;;;5093012;28;20076;-88
2021/09/02 09:37:40;;;;;;;13.07;7.10;;;;;;;;;;5091919;28;20436;-90
2021/09/02 09:40:14;;;;;;;15.88;7.60;;;;;;;;;;5092917;28;20047;-87
2021/09/02 09:42:53;;;;;;;14.38;7.35;;;;;;;;;;5092719;28;20064;-87
2021/09/02 09:45:31;;;;;;;12.55;7.32;;;;;;;;;;5110738;28;20126;-85
2021/09/02 09:47:58;;;;;;;12.63;6.88;;;;;;;;;;5110729;28;20044;-84
2021/09/02 09:50:24;;;;;;;13.68;6.80;;;;;;;;;;5092832;28;20051;-87
2021/09/02 09:52:50;;;;;;;13.48;7.20;;;;;;;;;;5092893;28;20078;-87
2021/09/02 09:55:17;;;;;;;11.80;6.88;;;;;;;;;;5093596;28;20048;-87
2021/09/02 09:57:43;;;;;;;11.88;7.43;;;;;;;;;;5112105;28;20080;-88
2021/09/02 10:00:14;;;;;;;13.38;7.22;;;;;;;;;;5098026;28;20051;-85
2021/09/02 10:02:44;;;;;;;14.30;7.53;;;;;;;;;;5116210;28;20051;-90
2021/09/02 10:05:12;;;;;;;15.00;7.15;;;;;;;;;;5096506;28;20041;-86
2021/09/02 10:07:40;;;;;;;14.32;7.10;;;;;;;;;;5082349;28;20097;-90
2021/09/02 10:10:09;;;;;;;15.88;8.00;;;;;;;;;;5095584;28;20059;-87
2021/09/02 10:12:35;;;;;;;13.20;8.05;;;;;;;;;;5079517;28;20100;-88
2021/09/02 10:15:06;;;;;;;15.30;7.63;;;;;;;;;;5079041;28;20047;-87
2021/09/02 10:17:33;;;;;;;14.80;7.85;;;;;;;;;;5114349;28;20101;-86
2021/09/02 10:20:01;;;;;;;13.95;7.68;;;;;;;;;;5095558;28;20101;-87
2021/09/02 10:22:28;;;;;;;14.40;8.05;;;;;;;;;;5096220;28;20044;-86
2021/09/02 10:24:54;;;;;;;14.13;7.78;;;;;;;;;;5078970;28;20055;-85
2021/09/02 10:27:23;;;;;;;13.02;8.48;;;;;;;;;;5109807;28;20127;-87
2021/09/02 10:29:50;;;;;;;15.88;7.70;;;;;;;;;;5075127;28;20075;-88
2021/09/02 10:32:28;;;;;;;11.52;7.00;;;;;;;;;;5076339;28;20047;-86
2021/09/02 10:35:03;;;;;;;15.40;8.50;;;;;;;;;;5059681;28;20040;-85
2021/09/02 10:37:38;;;;;;;12.95;7.55;;;;;;;;;;5058887;28;20117;-87
2021/09/02 10:40:07;;;;;;;18.80;7.90;;;;;;;;;;5058073;28;20048;-87
2021/09/02 10:42:43;;;;;;;12.50;6.95;;;;;;;;;;5109569;28;20048;-88
2021/09/02 10:45:30;;;;;;;11.30;6.85;;;;;;;;;;5075314;28;20055;-86
2021/09/02 10:48:00;;;;;;;11.23;6.93;;;;;;;;;;5067562;28;20128;-86
2021/09/02 10:50:31;;;;;;;11.43;6.43;;;;;;;;;;5111293;28;20047;-86
2021/09/02 10:53:11;;;;;;;11.20;6.90;;;;;;;;;;5094344;28;20047;-86
2021/09/02 10:55:40;;;;;;;14.55;8.57;;;;;;;;;;5094947;28;20043;-86
2021/09/02 10:58:07;;;;;;;13.25;7.57;;;;;;;;;;5101410;28;20063;-85
2021/09/02 11:00:41;;;;;;;15.95;8.73;;;;;;;;;;5074604;28;20051;-87
2021/09/02 11:03:16;;;;;;;15.93;7.70;;;;;;;;;;5093341;28;20043;-87
2021/09/02 11:05:49;;;;;;;14.93;7.78;;;;;;;;;;5073315;28;20466;-89
2021/09/02 11:08:30;;;;;;;14.00;8.00;;;;;;;;;;5094767;28;20066;-87
2021/09/02 11:11:12;;;;;;;13.40;8.10;;;;;;;;;;5093390;28;20448;-86
2021/09/02 11:13:38;;;;;;;11.52;7.40;;;;;;;;;;5094825;28;20043;-87
2021/09/02 11:16:10;;;;;;;12.00;7.55;;;;;;;;;;5094034;28;20040;-87
2021/09/02 11:18:41;;;;;;;14.98;7.72;;;;;;;;;;5088247;28;20044;-86
2021/09/02 11:21:14;;;;;;;13.90;8.18;;;;;;;;;;5087433;28;20123;-88
2021/09/02 11:23:44;;;;;;;15.80;8.05;;;;;;;;;;5098428;28;20035;-86
2021/09/02 11:26:10;;;;;;;14.70;7.65;;;;;;;;;;5111911;27;20043;-86
2021/09/02 11:28:50;;;;;;;17.60;8.77;;;;;;;;;;5094608;28;20072;-87
2021/09/02 11:31:16;;;;;;;15.45;8.40;;;;;;;;;;5094749;28;20517;-87
2021/09/02 11:33:46;;;;;;;16.33;9.38;;;;;;;;;;5094397;28;20441;-88
2021/09/02 11:36:12;;;;;;;13.10;8.15;;;;;;;;;;5111898;28;20035;-87
2021/09/02 11:38:40;;;;;;;12.75;7.95;;;;;;;;;;5077578;28;20059;-86
2021/09/02 11:41:07;;;;;;;9.95;7.28;;;;;;;;;;5093390;28;20096;-85
2021/09/02 11:43:37;;;;;;;15.40;7.30;;;;;;;;;;5094036;28;20048;-86
2021/09/02 11:46:05;;;;;;;12.65;7.32;;;;;;;;;;5076383;28;20083;-87
2021/09/02 11:48:31;;;;;;;14.15;7.82;;;;;;;;;;5094697;28;20054;-86
2021/09/02 11:50:58;;;;;;;14.32;8.23;;;;;;;;;;5079891;28;20060;-85
2021/09/02 11:53:29;;;;;;;13.98;7.68;;;;;;;;;;5069328;28;20061;-86
2021/09/02 11:55:55;;;;;;;12.93;8.00;;;;;;;;;;5034015;28;20049;-87
2021/09/02 11:58:25;;;;;;;16.33;8.40;;;;;;;;;;5034506;28;20135;-87
2021/09/02 12:00:58;;;;;;;14.43;8.05;;;;;;;;;;5056457;28;20040;-89
2021/09/02 12:03:25;;;;;;;12.75;7.65;;;;;;;;;;5070957;28;20052;-86
2021/09/02 12:05:54;;;;;;;16.65;8.48;;;;;;;;;;5069972;28;20048;-86
2021/09/02 12:08:20;;;;;;;13.30;8.18;;;;;;;;;;5053641;28;20396;-86
2021/09/02 12:10:46;;;;;;;12.50;7.60;;;;;;;;;;5069522;28;20042;-90
2021/09/02 12:13:34;;;;;;;12.20;8.32;;;;;;;;;;5071369;28;20040;-86
2021/09/02 12:16:09;;;;;;;13.18;7.60;;;;;;;;;;5069852;28;20101;-85
2021/09/02 12:18:36;;;;;;;10.77;7.00;;;;;;;;;;5070697;28;20091;-87
2021/09/02 12:21:24;;;;;;;11.20;7.68;;;;;;;;;;5071319;28;20052;-88
2021/09/02 12:23:53;;;;;;;11.77;7.45;;;;;;;;;;5053599;28;20040;-88
2021/09/02 12:26:38;;;;;;;17.20;8.60;;;;;;;;;;5070813;28;20403;-89
2021/09/02 12:29:10;;;;;;;13.45;8.07;;;;;;;;;;5070666;28;20351;-86
2021/09/02 12:31:37;;;;;;;13.85;7.82;;;;;;;;;;5071590;28;20072;-86
2021/09/02 12:34:19;;;;;;;12.70;7.85;;;;;;;;;;5069986;28;20075;-88
2021/09/02 12:36:57;;;;;;;15.30;8.07;;;;;;;;;;5053888;28;20139;-88
2021/09/02 12:39:24;;;;;;;14.00;7.90;;;;;;;;;;5070850;28;20052;-85
2021/09/02 12:41:53;;;;;;;12.93;8.20;;;;;;;;;;5069679;28;20298;-86
2021/09/02 12:44:21;;;;;;;16.58;7.95;;;;;;;;;;5039274;28;20083;-87
2021/09/02 12:46:58;;;;;;;13.23;7.95;;;;;;;;;;5069559;28;20136;-89
2021/09/02 12:49:25;;;;;;;15.27;8.25;;;;;;;;;;5052533;28;20098;-86
2021/09/02 12:51:57;;;;;;;14.70;8.45;;;;;;;;;;5048667;28;20052;-85
2021/09/02 12:54:23;;;;;;;15.18;8.07;;;;;;;;;;5070547;28;20098;-86
2021/09/02 12:56:49;;;;;;;10.98;7.32;;;;;;;;;;5053507;28;20091;-88
2021/09/02 12:59:15;;;;;;;12.30;8.70;;;;;;;;;;5070671;28;20080;-85
2021/09/02 13:01:41;;;;;;;14.15;7.90;;;;;;;;;;5069555;28;20052;-88
2021/09/02 13:04:08;;;;;;;16.63;8.00;;;;;;;;;;5068717;28;20310;-87
2021/09/02 13:06:34;;;;;;;13.10;8.27;;;;;;;;;;5069528;28;20455;-87
2021/09/02 13:09:01;;;;;;;12.65;8.13;;;;;;;;;;5052073;28;20093;-88
2021/09/02 13:11:28;;;;;;;12.27;7.93;;;;;;;;;;5069926;28;20101;-87
2021/09/02 13:13:54;;;;;;;11.13;7.93;;;;;;;;;;5068073;28;20074;-87
2021/09/02 13:16:21;;;;;;;16.10;9.30;;;;;;;;;;5070039;28;20090;-87
2021/09/02 13:18:48;;;;;;;12.38;8.27;;;;;;;;;;5069827;28;20056;-90
2021/09/02 13:21:14;;;;;;;13.20;8.77;;;;;;;;;;5069096;28;20052;-87
2021/09/02 13:23:40;;;;;;;13.00;8.65;;;;;;;;;;5052710;28;20047;-87
2021/09/02 13:26:07;;;;;;;13.75;8.30;;;;;;;;;;5069270;28;20050;-85
2021/09/02 13:28:33;;;;;;;13.27;8.40;;;;;;;;;;5070599;28;20040;-84
2021/09/02 13:30:59;;;;;;;15.90;8.50;;;;;;;;;;5069653;28;20040;-89
2021/09/02 13:33:25;;;;;;;12.15;7.78;;;;;;;;;;5069106;28;20163;-86
2021/09/02 13:35:52;;;;;;;14.27;8.20;;;;;;;;;;5070034;28;20131;-86
2021/09/02 13:38:18;;;;;;;13.40;8.93;;;;;;;;;;5069541;28;20048;-87
2021/09/02 13:40:44;;;;;;;19.13;9.05;;;;;;;;;;5071348;28;20128;-89
2021/09/02 13:43:11;;;;;;;13.10;8.48;;;;;;;;;;5070245;28;20539;-87
2021/09/02 13:45:37;;;;;;;12.68;8.63;;;;;;;;;;5070516;28;20048;-85
2021/09/02 13:48:03;;;;;;;14.50;8.77;;;;;;;;;;5049468;28;20064;-84
2021/09/02 13:50:29;;;;;;;11.40;8.48;;;;;;;;;;5046989;28;20439;-85
2021/09/02 13:52:55;;;;;;;11.77;8.18;;;;;;;;;;5048705;28;20052;-84
2021/09/02 13:55:22;;;;;;;14.48;9.00;;;;;;;;;;5070775;28;20049;-84
2021/09/02 13:57:48;;;;;;;21.88;8.63;;;;;;;;;;5053533;28;20044;-89
2021/09/02 14:00:15;;;;;;;13.15;8.93;;;;;;;;;;5070515;28;20093;-84
2021/09/02 14:02:41;;;;;;;13.10;8.80;;;;;;;;;;5071110;28;20481;-84
2021/09/02 14:05:08;;;;;;;14.55;8.88;;;;;;;;;;5069179;28;20048;-84
2021/09/02 14:07:35;;;;;;;15.00;9.80;;;;;;;;;;5071313;28;20102;-87
2021/09/02 14:10:01;;;;;;;14.25;9.93;;;;;;;;;;5069782;28;20053;-84
2021/09/02 14:12:27;;;;;;;15.40;9.30;;;;;;;;;;5070092;28;20041;-84
2021/09/02 14:14:53;;;;;;;12.57;8.88;;;;;;;;;;5070567;28;20048;-85
2021/09/02 14:17:19;;;;;;;14.13;9.13;;;;;;;;;;5069733;28;20093;-85
2021/09/02 14:19:45;;;;;;;11.52;8.13;;;;;;;;;;5069915;28;20127;-91
2021/09/02 14:22:12;;;;;;;13.07;9.20;;;;;;;;;;5069384;28;20052;-86
2021/09/02 14:24:38;;;;;;;15.18;9.02;;;;;;;;;;5069860;28;20041;-84
2021/09/02 14:27:04;;;;;;;12.85;9.05;;;;;;;;;;5052574;28;20052;-87
2021/09/02 14:29:30;;;;;;;12.10;8.85;;;;;;;;;;5069728;28;20051;-85